sensor_id;sensor_type;location;lat;lon;timestamp;temperature;humidity
75927;DHT22;64605;48.296;16.416;2022-11-12T00:00:59;10.10;73.90
75927;DHT22;64605;48.296;16.416;2022-11-12T00:03:24;10.10;73.90
75927;DHT22;64605;48.296;16.416;2022-11-12T00:05:50;10.00;74.00
75927;DHT22;64605;48.296;16.416;2022-11-12T00:08:17;10.00;74.00
75927;DHT22;64605;48.296;16.416;2022-11-12T00:10:44;9.90;74.20
75927;DHT22;64605;48.296;16.416;2022-11-12T00:13:09;9.90;74.80
75927;DHT22;64605;48.296;16.416;2022-11-12T00:15:35;9.70;75.10
75927;DHT22;64605;48.296;16.416;2022-11-12T00:18:01;9.80;74.80
75927;DHT22;64605;48.296;16.416;2022-11-12T00:20:26;9.80;74.70
75927;DHT22;64605;48.296;16.416;2022-11-12T00:22:52;9.70;74.50
75927;DHT22;64605;48.296;16.416;2022-11-12T00:25:17;9.60;74.90
75927;DHT22;64605;48.296;16.416;2022-11-12T00:27:43;9.60;75.30
75927;DHT22;64605;48.296;16.416;2022-11-12T00:30:09;9.50;75.40
75927;DHT22;64605;48.296;16.416;2022-11-12T00:32:35;9.50;75.60
75927;DHT22;64605;48.296;16.416;2022-11-12T00:35:05;9.40;75.90
75927;DHT22;64605;48.296;16.416;2022-11-12T00:37:31;9.30;76.20
75927;DHT22;64605;48.296;16.416;2022-11-12T00:39:57;9.40;75.50
75927;DHT22;64605;48.296;16.416;2022-11-12T00:42:22;9.40;75.40
75927;DHT22;64605;48.296;16.416;2022-11-12T00:44:48;9.30;75.80
75927;DHT22;64605;48.296;16.416;2022-11-12T00:47:15;9.20;76.20
75927;DHT22;64605;48.296;16.416;2022-11-12T00:49:40;9.20;76.10
75927;DHT22;64605;48.296;16.416;2022-11-12T00:52:06;9.20;75.80
75927;DHT22;64605;48.296;16.416;2022-11-12T00:54:32;9.20;75.80
75927;DHT22;64605;48.296;16.416;2022-11-12T00:56:57;9.20;75.50
75927;DHT22;64605;48.296;16.416;2022-11-12T00:59:23;9.30;75.70
75927;DHT22;64605;48.296;16.416;2022-11-12T01:01:49;9.30;76.00
75927;DHT22;64605;48.296;16.416;2022-11-12T01:04:14;9.30;75.80
75927;DHT22;64605;48.296;16.416;2022-11-12T01:06:40;9.40;75.80
75927;DHT22;64605;48.296;16.416;2022-11-12T01:09:07;9.40;75.80
75927;DHT22;64605;48.296;16.416;2022-11-12T01:11:33;9.50;75.90
75927;DHT22;64605;48.296;16.416;2022-11-12T01:14:02;9.50;75.90
75927;DHT22;64605;48.296;16.416;2022-11-12T01:16:33;9.50;75.90
75927;DHT22;64605;48.296;16.416;2022-11-12T01:19:00;9.60;75.80
75927;DHT22;64605;48.296;16.416;2022-11-12T01:21:29;9.70;75.60
75927;DHT22;64605;48.296;16.416;2022-11-12T01:23:59;9.80;75.30
75927;DHT22;64605;48.296;16.416;2022-11-12T01:26:26;9.80;75.20
75927;DHT22;64605;48.296;16.416;2022-11-12T01:28:55;9.90;74.90
75927;DHT22;64605;48.296;16.416;2022-11-12T01:31:25;10.00;74.60
75927;DHT22;64605;48.296;16.416;2022-11-12T01:33:56;10.00;75.50
75927;DHT22;64605;48.296;16.416;2022-11-12T01:36:23;10.00;74.00
75927;DHT22;64605;48.296;16.416;2022-11-12T01:38:49;10.00;73.90
75927;DHT22;64605;48.296;16.416;2022-11-12T01:41:18;10.00;73.50
75927;DHT22;64605;48.296;16.416;2022-11-12T01:43:44;9.90;73.20
75927;DHT22;64605;48.296;16.416;2022-11-12T01:46:21;9.80;73.30
75927;DHT22;64605;48.296;16.416;2022-11-12T01:48:55;9.70;73.60
75927;DHT22;64605;48.296;16.416;2022-11-12T01:51:27;9.60;73.80
75927;DHT22;64605;48.296;16.416;2022-11-12T01:53:58;9.60;73.80
75927;DHT22;64605;48.296;16.416;2022-11-12T01:56:27;9.60;73.70
75927;DHT22;64605;48.296;16.416;2022-11-12T01:58:57;9.60;73.80
75927;DHT22;64605;48.296;16.416;2022-11-12T02:01:24;9.50;74.00
75927;DHT22;64605;48.296;16.416;2022-11-12T02:03:50;9.50;73.90
75927;DHT22;64605;48.296;16.416;2022-11-12T02:06:16;9.50;73.90
75927;DHT22;64605;48.296;16.416;2022-11-12T02:08:43;9.50;74.00
75927;DHT22;64605;48.296;16.416;2022-11-12T02:11:15;9.50;73.90
75927;DHT22;64605;48.296;16.416;2022-11-12T02:13:42;9.40;74.00
75927;DHT22;64605;48.296;16.416;2022-11-12T02:16:38;9.40;74.20
75927;DHT22;64605;48.296;16.416;2022-11-12T02:19:06;9.40;74.10
75927;DHT22;64605;48.296;16.416;2022-11-12T02:21:33;9.30;74.30
75927;DHT22;64605;48.296;16.416;2022-11-12T02:26:34;9.20;74.80
75927;DHT22;64605;48.296;16.416;2022-11-12T02:29:01;9.30;74.70
75927;DHT22;64605;48.296;16.416;2022-11-12T02:31:27;9.30;74.30
75927;DHT22;64605;48.296;16.416;2022-11-12T02:33:53;9.40;74.00
75927;DHT22;64605;48.296;16.416;2022-11-12T02:36:19;9.30;73.90
75927;DHT22;64605;48.296;16.416;2022-11-12T02:38:45;9.40;73.80
75927;DHT22;64605;48.296;16.416;2022-11-12T02:41:10;9.40;74.00
75927;DHT22;64605;48.296;16.416;2022-11-12T02:43:36;9.40;74.10
75927;DHT22;64605;48.296;16.416;2022-11-12T02:46:02;9.40;74.20
75927;DHT22;64605;48.296;16.416;2022-11-12T02:48:28;9.40;74.40
75927;DHT22;64605;48.296;16.416;2022-11-12T02:50:53;9.50;74.70
75927;DHT22;64605;48.296;16.416;2022-11-12T02:53:19;9.50;74.60
75927;DHT22;64605;48.296;16.416;2022-11-12T02:55:44;9.60;74.50
75927;DHT22;64605;48.296;16.416;2022-11-12T02:58:10;9.70;74.30
75927;DHT22;64605;48.296;16.416;2022-11-12T03:00:35;9.80;74.10
75927;DHT22;64605;48.296;16.416;2022-11-12T03:03:01;9.90;74.20
75927;DHT22;64605;48.296;16.416;2022-11-12T03:05:28;9.90;73.60
75927;DHT22;64605;48.296;16.416;2022-11-12T03:07:59;9.90;73.10
75927;DHT22;64605;48.296;16.416;2022-11-12T03:10:25;10.00;73.70
75927;DHT22;64605;48.296;16.416;2022-11-12T03:12:52;10.00;73.30
75927;DHT22;64605;48.296;16.416;2022-11-12T03:15:19;10.00;72.70
75927;DHT22;64605;48.296;16.416;2022-11-12T03:17:44;10.10;73.10
75927;DHT22;64605;48.296;16.416;2022-11-12T03:20:11;10.20;72.00
75927;DHT22;64605;48.296;16.416;2022-11-12T03:22:37;10.20;72.00
75927;DHT22;64605;48.296;16.416;2022-11-12T03:25:04;10.20;72.10
75927;DHT22;64605;48.296;16.416;2022-11-12T03:27:30;10.20;71.80
75927;DHT22;64605;48.296;16.416;2022-11-12T03:29:56;10.30;72.10
75927;DHT22;64605;48.296;16.416;2022-11-12T03:32:21;10.30;71.80
75927;DHT22;64605;48.296;16.416;2022-11-12T03:34:47;10.30;71.80
75927;DHT22;64605;48.296;16.416;2022-11-12T03:37:12;10.40;71.80
75927;DHT22;64605;48.296;16.416;2022-11-12T03:39:38;10.40;71.40
75927;DHT22;64605;48.296;16.416;2022-11-12T03:42:04;10.40;71.20
75927;DHT22;64605;48.296;16.416;2022-11-12T03:44:30;10.40;71.30
75927;DHT22;64605;48.296;16.416;2022-11-12T03:46:56;10.40;71.30
75927;DHT22;64605;48.296;16.416;2022-11-12T03:49:21;10.30;71.20
75927;DHT22;64605;48.296;16.416;2022-11-12T03:51:47;10.30;71.10
75927;DHT22;64605;48.296;16.416;2022-11-12T03:54:12;10.20;71.00
75927;DHT22;64605;48.296;16.416;2022-11-12T03:56:38;10.00;71.20
75927;DHT22;64605;48.296;16.416;2022-11-12T03:59:04;9.80;71.80
75927;DHT22;64605;48.296;16.416;2022-11-12T04:01:30;9.70;72.10
75927;DHT22;64605;48.296;16.416;2022-11-12T04:03:56;9.50;72.60
75927;DHT22;64605;48.296;16.416;2022-11-12T04:06:22;9.30;73.30
75927;DHT22;64605;48.296;16.416;2022-11-12T04:09:06;9.30;73.20
75927;DHT22;64605;48.296;16.416;2022-11-12T04:11:31;9.20;73.40
75927;DHT22;64605;48.296;16.416;2022-11-12T04:13:57;9.20;73.50
75927;DHT22;64605;48.296;16.416;2022-11-12T04:16:23;9.10;73.40
75927;DHT22;64605;48.296;16.416;2022-11-12T04:19:12;9.00;73.70
75927;DHT22;64605;48.296;16.416;2022-11-12T04:22:06;9.00;73.70
75927;DHT22;64605;48.296;16.416;2022-11-12T04:24:42;9.00;73.60
75927;DHT22;64605;48.296;16.416;2022-11-12T04:27:28;8.80;74.10
75927;DHT22;64605;48.296;16.416;2022-11-12T04:29:54;8.70;74.60
75927;DHT22;64605;48.296;16.416;2022-11-12T04:32:44;8.60;74.50
75927;DHT22;64605;48.296;16.416;2022-11-12T04:35:10;8.60;74.40
75927;DHT22;64605;48.296;16.416;2022-11-12T04:37:37;8.60;74.50
75927;DHT22;64605;48.296;16.416;2022-11-12T04:40:15;8.50;74.10
75927;DHT22;64605;48.296;16.416;2022-11-12T04:43:00;8.50;74.10
75927;DHT22;64605;48.296;16.416;2022-11-12T04:45:46;8.50;74.30
75927;DHT22;64605;48.296;16.416;2022-11-12T04:48:12;8.40;74.20
75927;DHT22;64605;48.296;16.416;2022-11-12T04:50:38;8.40;74.30
75927;DHT22;64605;48.296;16.416;2022-11-12T04:53:05;8.40;74.50
75927;DHT22;64605;48.296;16.416;2022-11-12T04:55:31;8.40;74.40
75927;DHT22;64605;48.296;16.416;2022-11-12T04:57:56;8.30;74.50
75927;DHT22;64605;48.296;16.416;2022-11-12T05:00:22;8.30;74.30
75927;DHT22;64605;48.296;16.416;2022-11-12T05:02:51;8.30;74.50
75927;DHT22;64605;48.296;16.416;2022-11-12T05:05:16;8.30;74.40
75927;DHT22;64605;48.296;16.416;2022-11-12T05:07:42;8.20;74.50
75927;DHT22;64605;48.296;16.416;2022-11-12T05:10:08;8.20;74.40
75927;DHT22;64605;48.296;16.416;2022-11-12T05:12:34;8.20;74.60
75927;DHT22;64605;48.296;16.416;2022-11-12T05:15:00;8.10;75.00
75927;DHT22;64605;48.296;16.416;2022-11-12T05:17:27;8.10;75.10
75927;DHT22;64605;48.296;16.416;2022-11-12T05:19:53;8.10;75.30
75927;DHT22;64605;48.296;16.416;2022-11-12T05:22:18;8.00;75.40
75927;DHT22;64605;48.296;16.416;2022-11-12T05:24:45;8.00;77.00
75927;DHT22;64605;48.296;16.416;2022-11-12T05:27:20;8.00;75.90
75927;DHT22;64605;48.296;16.416;2022-11-12T05:29:45;8.00;75.90
75927;DHT22;64605;48.296;16.416;2022-11-12T05:32:13;8.00;76.00
75927;DHT22;64605;48.296;16.416;2022-11-12T05:34:40;7.90;76.10
75927;DHT22;64605;48.296;16.416;2022-11-12T05:37:07;7.90;76.80
75927;DHT22;64605;48.296;16.416;2022-11-12T05:39:33;7.80;76.80
75927;DHT22;64605;48.296;16.416;2022-11-12T05:41:58;7.80;76.90
75927;DHT22;64605;48.296;16.416;2022-11-12T05:44:24;7.80;77.00
75927;DHT22;64605;48.296;16.416;2022-11-12T05:46:50;7.80;76.60
75927;DHT22;64605;48.296;16.416;2022-11-12T05:49:16;7.80;76.10
75927;DHT22;64605;48.296;16.416;2022-11-12T05:51:42;7.80;75.90
75927;DHT22;64605;48.296;16.416;2022-11-12T05:54:08;7.80;75.50
75927;DHT22;64605;48.296;16.416;2022-11-12T05:56:35;7.80;75.40
75927;DHT22;64605;48.296;16.416;2022-11-12T05:59:02;7.80;75.30
75927;DHT22;64605;48.296;16.416;2022-11-12T06:01:28;7.80;75.10
75927;DHT22;64605;48.296;16.416;2022-11-12T06:03:55;7.80;75.20
75927;DHT22;64605;48.296;16.416;2022-11-12T06:06:21;7.80;75.00
75927;DHT22;64605;48.296;16.416;2022-11-12T06:08:47;7.80;75.10
75927;DHT22;64605;48.296;16.416;2022-11-12T06:11:13;7.80;75.00
75927;DHT22;64605;48.296;16.416;2022-11-12T06:13:39;7.80;75.00
75927;DHT22;64605;48.296;16.416;2022-11-12T06:16:05;7.80;75.00
75927;DHT22;64605;48.296;16.416;2022-11-12T06:18:31;7.80;75.20
75927;DHT22;64605;48.296;16.416;2022-11-12T06:21:08;7.90;75.30
75927;DHT22;64605;48.296;16.416;2022-11-12T06:23:54;7.90;75.30
75927;DHT22;64605;48.296;16.416;2022-11-12T06:26:20;8.00;75.50
75927;DHT22;64605;48.296;16.416;2022-11-12T06:28:47;8.00;75.70
75927;DHT22;64605;48.296;16.416;2022-11-12T06:31:13;8.10;75.60
75927;DHT22;64605;48.296;16.416;2022-11-12T06:33:39;8.10;75.40
75927;DHT22;64605;48.296;16.416;2022-11-12T06:36:06;8.20;75.00
75927;DHT22;64605;48.296;16.416;2022-11-12T06:38:33;8.30;75.00
75927;DHT22;64605;48.296;16.416;2022-11-12T06:40:59;8.40;74.90
75927;DHT22;64605;48.296;16.416;2022-11-12T06:43:27;8.40;74.70
75927;DHT22;64605;48.296;16.416;2022-11-12T06:45:53;8.50;74.60
75927;DHT22;64605;48.296;16.416;2022-11-12T06:48:19;8.60;74.50
75927;DHT22;64605;48.296;16.416;2022-11-12T06:50:44;8.70;74.50
75927;DHT22;64605;48.296;16.416;2022-11-12T06:53:10;8.80;74.40
75927;DHT22;64605;48.296;16.416;2022-11-12T06:55:35;9.00;74.40
75927;DHT22;64605;48.296;16.416;2022-11-12T06:58:01;9.10;75.40
75927;DHT22;64605;48.296;16.416;2022-11-12T07:00:27;9.30;74.20
75927;DHT22;64605;48.296;16.416;2022-11-12T07:02:52;9.50;74.10
75927;DHT22;64605;48.296;16.416;2022-11-12T07:05:18;9.70;73.90
75927;DHT22;64605;48.296;16.416;2022-11-12T07:07:43;9.90;73.20
75927;DHT22;64605;48.296;16.416;2022-11-12T07:10:09;10.00;72.50
75927;DHT22;64605;48.296;16.416;2022-11-12T07:12:35;10.10;71.90
75927;DHT22;64605;48.296;16.416;2022-11-12T07:15:00;10.30;71.80
75927;DHT22;64605;48.296;16.416;2022-11-12T07:17:27;10.60;71.90
75927;DHT22;64605;48.296;16.416;2022-11-12T07:19:52;11.10;70.50
75927;DHT22;64605;48.296;16.416;2022-11-12T07:22:18;11.70;69.30
75927;DHT22;64605;48.296;16.416;2022-11-12T07:24:43;12.30;67.00
75927;DHT22;64605;48.296;16.416;2022-11-12T07:27:09;12.90;67.40
75927;DHT22;64605;48.296;16.416;2022-11-12T07:29:36;13.70;66.50
75927;DHT22;64605;48.296;16.416;2022-11-12T07:32:01;14.60;64.40
75927;DHT22;64605;48.296;16.416;2022-11-12T07:34:27;15.30;61.90
75927;DHT22;64605;48.296;16.416;2022-11-12T07:36:53;15.40;57.00
75927;DHT22;64605;48.296;16.416;2022-11-12T07:39:18;15.50;57.80
75927;DHT22;64605;48.296;16.416;2022-11-12T07:41:44;16.20;58.60
75927;DHT22;64605;48.296;16.416;2022-11-12T07:44:09;17.00;56.80
75927;DHT22;64605;48.296;16.416;2022-11-12T07:46:35;17.40;54.60
75927;DHT22;64605;48.296;16.416;2022-11-12T07:49:01;18.20;54.00
75927;DHT22;64605;48.296;16.416;2022-11-12T07:51:28;18.80;49.50
75927;DHT22;64605;48.296;16.416;2022-11-12T07:53:56;19.40;50.30
75927;DHT22;64605;48.296;16.416;2022-11-12T07:56:24;20.10;47.40
75927;DHT22;64605;48.296;16.416;2022-11-12T07:58:50;20.90;48.40
75927;DHT22;64605;48.296;16.416;2022-11-12T08:01:36;21.90;47.20
75927;DHT22;64605;48.296;16.416;2022-11-12T08:04:05;22.80;44.30
75927;DHT22;64605;48.296;16.416;2022-11-12T08:06:31;23.30;41.70
75927;DHT22;64605;48.296;16.416;2022-11-12T08:08:59;24.30;40.90
75927;DHT22;64605;48.296;16.416;2022-11-12T08:11:25;25.30;39.10
75927;DHT22;64605;48.296;16.416;2022-11-12T08:13:51;26.30;37.50
75927;DHT22;64605;48.296;16.416;2022-11-12T08:16:17;27.00;36.00
75927;DHT22;64605;48.296;16.416;2022-11-12T08:18:44;27.60;34.80
75927;DHT22;64605;48.296;16.416;2022-11-12T08:21:12;28.30;33.10
75927;DHT22;64605;48.296;16.416;2022-11-12T08:23:39;29.00;32.70
75927;DHT22;64605;48.296;16.416;2022-11-12T08:26:06;29.60;31.00
75927;DHT22;64605;48.296;16.416;2022-11-12T08:28:34;29.80;30.70
75927;DHT22;64605;48.296;16.416;2022-11-12T08:31:06;29.80;29.90
75927;DHT22;64605;48.296;16.416;2022-11-12T08:33:32;30.00;29.90
75927;DHT22;64605;48.296;16.416;2022-11-12T08:36:01;30.20;29.60
75927;DHT22;64605;48.296;16.416;2022-11-12T08:38:26;30.30;28.60
75927;DHT22;64605;48.296;16.416;2022-11-12T08:40:52;30.20;28.10
75927;DHT22;64605;48.296;16.416;2022-11-12T08:43:18;30.30;29.10
75927;DHT22;64605;48.296;16.416;2022-11-12T08:45:44;30.70;28.40
75927;DHT22;64605;48.296;16.416;2022-11-12T08:48:11;30.70;28.00
75927;DHT22;64605;48.296;16.416;2022-11-12T08:50:38;30.90;28.10
75927;DHT22;64605;48.296;16.416;2022-11-12T08:53:07;31.10;26.90
75927;DHT22;64605;48.296;16.416;2022-11-12T08:55:34;31.40;27.10
75927;DHT22;64605;48.296;16.416;2022-11-12T08:57:59;31.40;27.20
75927;DHT22;64605;48.296;16.416;2022-11-12T09:00:33;31.60;27.20
75927;DHT22;64605;48.296;16.416;2022-11-12T09:03:00;31.80;26.60
75927;DHT22;64605;48.296;16.416;2022-11-12T09:05:26;32.10;26.20
75927;DHT22;64605;48.296;16.416;2022-11-12T09:07:58;32.30;25.70
75927;DHT22;64605;48.296;16.416;2022-11-12T09:10:24;32.50;26.10
75927;DHT22;64605;48.296;16.416;2022-11-12T09:12:51;32.70;25.10
75927;DHT22;64605;48.296;16.416;2022-11-12T09:15:17;33.00;26.80
75927;DHT22;64605;48.296;16.416;2022-11-12T09:17:43;33.40;25.70
75927;DHT22;64605;48.296;16.416;2022-11-12T09:20:08;33.40;24.50
75927;DHT22;64605;48.296;16.416;2022-11-12T09:22:34;33.30;24.60
75927;DHT22;64605;48.296;16.416;2022-11-12T09:25:00;33.30;24.60
75927;DHT22;64605;48.296;16.416;2022-11-12T09:27:26;33.60;24.20
75927;DHT22;64605;48.296;16.416;2022-11-12T09:29:52;34.10;24.60
75927;DHT22;64605;48.296;16.416;2022-11-12T09:32:18;34.60;24.10
75927;DHT22;64605;48.296;16.416;2022-11-12T09:34:43;34.90;23.50
75927;DHT22;64605;48.296;16.416;2022-11-12T09:37:09;34.90;22.50
75927;DHT22;64605;48.296;16.416;2022-11-12T09:39:35;34.70;23.00
75927;DHT22;64605;48.296;16.416;2022-11-12T09:42:06;34.80;23.10
75927;DHT22;64605;48.296;16.416;2022-11-12T09:44:34;34.80;22.30
75927;DHT22;64605;48.296;16.416;2022-11-12T09:47:10;34.30;22.50
75927;DHT22;64605;48.296;16.416;2022-11-12T09:50:19;34.60;22.70
75927;DHT22;64605;48.296;16.416;2022-11-12T09:52:38;34.70;22.80
75927;DHT22;64605;48.296;16.416;2022-11-12T09:57:36;35.30;21.70
75927;DHT22;64605;48.296;16.416;2022-11-12T10:00:08;35.80;21.60
75927;DHT22;64605;48.296;16.416;2022-11-12T10:02:43;35.90;21.90
75927;DHT22;64605;48.296;16.416;2022-11-12T10:13:06;37.60;21.20
75927;DHT22;64605;48.296;16.416;2022-11-12T10:15:44;38.10;20.40
75927;DHT22;64605;48.296;16.416;2022-11-12T10:19:03;38.50;20.20
75927;DHT22;64605;48.296;16.416;2022-11-12T10:21:43;39.10;20.30
75927;DHT22;64605;48.296;16.416;2022-11-12T10:24:11;39.70;18.90
75927;DHT22;64605;48.296;16.416;2022-11-12T10:26:38;39.90;19.10
75927;DHT22;64605;48.296;16.416;2022-11-12T10:31:35;40.30;19.30
75927;DHT22;64605;48.296;16.416;2022-11-12T10:34:18;40.60;18.90
75927;DHT22;64605;48.296;16.416;2022-11-12T10:36:50;40.60;18.10
75927;DHT22;64605;48.296;16.416;2022-11-12T10:42:13;41.10;18.00
75927;DHT22;64605;48.296;16.416;2022-11-12T10:44:40;40.90;18.20
75927;DHT22;64605;48.296;16.416;2022-11-12T10:47:29;41.00;17.70
75927;DHT22;64605;48.296;16.416;2022-11-12T10:52:34;40.90;18.40
75927;DHT22;64605;48.296;16.416;2022-11-12T10:55:27;40.70;17.10
75927;DHT22;64605;48.296;16.416;2022-11-12T11:00:34;39.50;17.90
75927;DHT22;64605;48.296;16.416;2022-11-12T11:03:04;37.30;18.20
75927;DHT22;64605;48.296;16.416;2022-11-12T11:05:51;35.10;19.90
75927;DHT22;64605;48.296;16.416;2022-11-12T11:13:45;28.90;24.40
75927;DHT22;64605;48.296;16.416;2022-11-12T11:16:20;27.50;25.80
75927;DHT22;64605;48.296;16.416;2022-11-12T11:18:49;26.40;26.80
75927;DHT22;64605;48.296;16.416;2022-11-12T11:35:15;22.30;33.50
75927;DHT22;64605;48.296;16.416;2022-11-12T11:40:30;21.50;35.30
75927;DHT22;64605;48.296;16.416;2022-11-12T11:43:18;21.20;36.20
75927;DHT22;64605;48.296;16.416;2022-11-12T11:48:46;20.70;37.50
75927;DHT22;64605;48.296;16.416;2022-11-12T11:54:25;20.10;38.50
75927;DHT22;64605;48.296;16.416;2022-11-12T11:56:58;19.90;39.10
75927;DHT22;64605;48.296;16.416;2022-11-12T12:08:08;19.30;40.70
75927;DHT22;64605;48.296;16.416;2022-11-12T12:10:51;19.20;40.70
75927;DHT22;64605;48.296;16.416;2022-11-12T12:16:29;18.90;40.80
75927;DHT22;64605;48.296;16.416;2022-11-12T12:19:31;18.80;41.20
75927;DHT22;64605;48.296;16.416;2022-11-12T12:22:00;18.70;41.60
75927;DHT22;64605;48.296;16.416;2022-11-12T12:24:31;18.60;41.40
75927;DHT22;64605;48.296;16.416;2022-11-12T12:27:49;18.60;41.50
75927;DHT22;64605;48.296;16.416;2022-11-12T12:33:27;18.50;41.70
75927;DHT22;64605;48.296;16.416;2022-11-12T12:35:58;18.50;41.80
75927;DHT22;64605;48.296;16.416;2022-11-12T12:38:52;18.30;41.80
75927;DHT22;64605;48.296;16.416;2022-11-12T12:41:31;18.20;42.50
75927;DHT22;64605;48.296;16.416;2022-11-12T12:44:04;18.10;42.40
75927;DHT22;64605;48.296;16.416;2022-11-12T12:46:36;18.00;42.60
75927;DHT22;64605;48.296;16.416;2022-11-12T12:49:04;18.00;42.70
75927;DHT22;64605;48.296;16.416;2022-11-12T12:51:32;18.00;43.00
75927;DHT22;64605;48.296;16.416;2022-11-12T12:53:58;18.00;42.70
75927;DHT22;64605;48.296;16.416;2022-11-12T12:58:52;17.80;42.50
75927;DHT22;64605;48.296;16.416;2022-11-12T13:06:26;17.70;42.70
75927;DHT22;64605;48.296;16.416;2022-11-12T13:28:24;17.50;45.30
75927;DHT22;64605;48.296;16.416;2022-11-12T13:46:07;17.20;45.90
75927;DHT22;64605;48.296;16.416;2022-11-12T13:49:02;17.10;45.70
75927;DHT22;64605;48.296;16.416;2022-11-12T13:53:59;17.10;46.20
75927;DHT22;64605;48.296;16.416;2022-11-12T13:56:32;17.00;46.50
75927;DHT22;64605;48.296;16.416;2022-11-12T13:59:27;17.00;46.60
75927;DHT22;64605;48.296;16.416;2022-11-12T14:01:54;16.90;47.00
75927;DHT22;64605;48.296;16.416;2022-11-12T14:04:22;16.80;47.20
75927;DHT22;64605;48.296;16.416;2022-11-12T14:06:53;16.70;47.20
75927;DHT22;64605;48.296;16.416;2022-11-12T14:12:37;16.60;47.40
75927;DHT22;64605;48.296;16.416;2022-11-12T14:20:35;16.40;47.40
75927;DHT22;64605;48.296;16.416;2022-11-12T14:25:48;16.30;47.50
75927;DHT22;64605;48.296;16.416;2022-11-12T14:30:48;16.10;47.60
75927;DHT22;64605;48.296;16.416;2022-11-12T14:33:19;16.10;47.80
75927;DHT22;64605;48.296;16.416;2022-11-12T14:35:46;16.00;48.30
75927;DHT22;64605;48.296;16.416;2022-11-12T14:38:32;15.90;48.10
75927;DHT22;64605;48.296;16.416;2022-11-12T14:41:07;15.80;48.30
75927;DHT22;64605;48.296;16.416;2022-11-12T14:43:48;15.70;48.60
75927;DHT22;64605;48.296;16.416;2022-11-12T14:48:57;15.60;49.00
75927;DHT22;64605;48.296;16.416;2022-11-12T14:51:26;15.50;49.30
75927;DHT22;64605;48.296;16.416;2022-11-12T14:54:00;15.30;49.60
75927;DHT22;64605;48.296;16.416;2022-11-12T14:56:38;15.20;49.60
75927;DHT22;64605;48.296;16.416;2022-11-12T14:59:04;15.10;49.60
75927;DHT22;64605;48.296;16.416;2022-11-12T15:01:35;15.10;49.80
75927;DHT22;64605;48.296;16.416;2022-11-12T15:06:38;14.90;50.60
75927;DHT22;64605;48.296;16.416;2022-11-12T15:09:04;14.80;50.70
75927;DHT22;64605;48.296;16.416;2022-11-12T15:11:42;14.70;50.70
75927;DHT22;64605;48.296;16.416;2022-11-12T15:14:18;14.60;51.00
75927;DHT22;64605;48.296;16.416;2022-11-12T15:16:46;14.50;51.20
75927;DHT22;64605;48.296;16.416;2022-11-12T15:19:23;14.40;51.40
75927;DHT22;64605;48.296;16.416;2022-11-12T15:22:01;14.30;52.30
75927;DHT22;64605;48.296;16.416;2022-11-12T15:24:36;14.20;52.70
75927;DHT22;64605;48.296;16.416;2022-11-12T15:27:40;14.00;52.90
75927;DHT22;64605;48.296;16.416;2022-11-12T15:30:22;14.00;52.90
75927;DHT22;64605;48.296;16.416;2022-11-12T15:33:34;13.80;53.50
75927;DHT22;64605;48.296;16.416;2022-11-12T15:35:36;13.70;52.80
75927;DHT22;64605;48.296;16.416;2022-11-12T15:40:45;13.50;54.10
75927;DHT22;64605;48.296;16.416;2022-11-12T15:43:36;13.40;53.80
75927;DHT22;64605;48.296;16.416;2022-11-12T15:46:12;13.30;54.80
75927;DHT22;64605;48.296;16.416;2022-11-12T15:48:38;13.20;55.00
75927;DHT22;64605;48.296;16.416;2022-11-12T15:51:04;13.10;55.20
75927;DHT22;64605;48.296;16.416;2022-11-12T15:53:30;13.00;55.00
75927;DHT22;64605;48.296;16.416;2022-11-12T15:55:55;12.90;55.30
75927;DHT22;64605;48.296;16.416;2022-11-12T15:58:30;12.80;55.30
75927;DHT22;64605;48.296;16.416;2022-11-12T16:00:57;12.80;56.10
75927;DHT22;64605;48.296;16.416;2022-11-12T16:03:23;12.70;55.80
75927;DHT22;64605;48.296;16.416;2022-11-12T16:05:48;12.60;55.70
75927;DHT22;64605;48.296;16.416;2022-11-12T16:08:14;12.60;55.80
75927;DHT22;64605;48.296;16.416;2022-11-12T16:10:41;12.50;56.00
75927;DHT22;64605;48.296;16.416;2022-11-12T16:13:26;12.40;57.10
75927;DHT22;64605;48.296;16.416;2022-11-12T16:15:53;12.40;57.10
75927;DHT22;64605;48.296;16.416;2022-11-12T16:18:19;12.30;58.80
75927;DHT22;64605;48.296;16.416;2022-11-12T16:20:44;12.30;57.50
75927;DHT22;64605;48.296;16.416;2022-11-12T16:23:11;12.20;58.20
75927;DHT22;64605;48.296;16.416;2022-11-12T16:25:37;12.10;58.50
75927;DHT22;64605;48.296;16.416;2022-11-12T16:28:12;12.10;59.10
75927;DHT22;64605;48.296;16.416;2022-11-12T16:30:38;12.00;58.90
75927;DHT22;64605;48.296;16.416;2022-11-12T16:33:04;12.00;58.90
75927;DHT22;64605;48.296;16.416;2022-11-12T16:35:32;12.00;58.40
75927;DHT22;64605;48.296;16.416;2022-11-12T16:37:59;12.00;58.50
75927;DHT22;64605;48.296;16.416;2022-11-12T16:40:27;11.90;58.50
75927;DHT22;64605;48.296;16.416;2022-11-12T16:42:53;11.90;58.10
75927;DHT22;64605;48.296;16.416;2022-11-12T16:45:21;11.80;58.50
75927;DHT22;64605;48.296;16.416;2022-11-12T16:47:49;11.70;58.20
75927;DHT22;64605;48.296;16.416;2022-11-12T16:50:19;11.70;58.50
75927;DHT22;64605;48.296;16.416;2022-11-12T16:52:46;11.60;59.10
75927;DHT22;64605;48.296;16.416;2022-11-12T16:55:12;11.60;59.00
75927;DHT22;64605;48.296;16.416;2022-11-12T16:57:37;11.50;59.20
75927;DHT22;64605;48.296;16.416;2022-11-12T17:00:05;11.40;58.90
75927;DHT22;64605;48.296;16.416;2022-11-12T17:02:32;11.40;59.30
75927;DHT22;64605;48.296;16.416;2022-11-12T17:05:13;11.30;59.70
75927;DHT22;64605;48.296;16.416;2022-11-12T17:07:38;11.30;60.10
75927;DHT22;64605;48.296;16.416;2022-11-12T17:10:04;11.20;59.30
75927;DHT22;64605;48.296;16.416;2022-11-12T17:12:30;11.10;60.40
75927;DHT22;64605;48.296;16.416;2022-11-12T17:14:56;11.10;59.90
75927;DHT22;64605;48.296;16.416;2022-11-12T17:17:21;11.00;60.00
75927;DHT22;64605;48.296;16.416;2022-11-12T17:19:47;10.90;60.50
75927;DHT22;64605;48.296;16.416;2022-11-12T17:22:12;10.90;60.90
75927;DHT22;64605;48.296;16.416;2022-11-12T17:24:38;10.80;60.50
75927;DHT22;64605;48.296;16.416;2022-11-12T17:27:04;10.80;61.30
75927;DHT22;64605;48.296;16.416;2022-11-12T17:29:29;10.70;61.50
75927;DHT22;64605;48.296;16.416;2022-11-12T17:31:55;10.70;61.60
75927;DHT22;64605;48.296;16.416;2022-11-12T17:34:20;10.60;61.60
75927;DHT22;64605;48.296;16.416;2022-11-12T17:36:46;10.60;61.70
75927;DHT22;64605;48.296;16.416;2022-11-12T17:39:12;10.50;61.90
75927;DHT22;64605;48.296;16.416;2022-11-12T17:41:38;10.40;62.80
75927;DHT22;64605;48.296;16.416;2022-11-12T17:44:04;10.40;63.10
75927;DHT22;64605;48.296;16.416;2022-11-12T17:46:30;10.40;62.70
75927;DHT22;64605;48.296;16.416;2022-11-12T17:49:00;10.30;62.40